sensor_id;sensor_type;location;lat;lon;timestamp;pressure;altitude;pressure_sealevel;temperature;humidity
37368;BME280;23240;43.210;27.910;2023-04-09T00:01:04;101671.72;;;7.87;100.00
37368;BME280;23240;43.210;27.910;2023-04-09T00:03:30;101674.84;;;7.95;100.00
37368;BME280;23240;43.210;27.910;2023-04-09T00:05:56;101680.53;;;8.05;100.00
37368;BME280;23240;43.210;27.910;2023-04-09T00:08:21;101673.81;;;8.13;100.00
37368;BME280;23240;43.210;27.910;2023-04-09T00:10:50;101668.88;;;8.21;100.00
37368;BME280;23240;43.210;27.910;2023-04-09T00:13:15;101676.56;;;8.28;100.00
37368;BME280;23240;43.210;27.910;2023-04-09T00:15:42;101676.56;;;8.28;100.00
37368;BME280;23240;43.210;27.910;2023-04-09T00:18:07;101677.78;;;8.38;100.00
37368;BME280;23240;43.210;27.910;2023-04-09T00:20:32;101683.47;;;8.47;100.00
37368;BME280;23240;43.210;27.910;2023-04-09T00:22:58;101680.53;;;8.52;100.00
37368;BME280;23240;43.210;27.910;2023-04-09T00:25:23;101682.41;;;8.50;100.00
37368;BME280;23240;43.210;27.910;2023-04-09T00:27:48;101680.53;;;8.52;100.00
37368;BME280;23240;43.210;27.910;2023-04-09T00:30:14;101685.00;;;8.52;100.00
37368;BME280;23240;43.210;27.910;2023-04-09T00:32:40;101681.88;;;8.59;100.00
37368;BME280;23240;43.210;27.910;2023-04-09T00:35:05;101682.19;;;8.69;100.00
37368;BME280;23240;43.210;27.910;2023-04-09T00:37:31;101676.00;;;8.68;100.00
37368;BME280;23240;43.210;27.910;2023-04-09T00:39:56;101677.91;;;8.66;100.00
37368;BME280;23240;43.210;27.910;2023-04-09T00:42:22;101678.06;;;8.63;100.00
37368;BME280;23240;43.210;27.910;2023-04-09T00:44:47;101676.22;;;8.49;100.00
37368;BME280;23240;43.210;27.910;2023-04-09T00:47:13;101674.13;;;8.55;100.00
37368;BME280;23240;43.210;27.910;2023-04-09T00:49:38;101669.84;;;8.52;100.00
37368;BME280;23240;43.210;27.910;2023-04-09T00:52:03;101674.59;;;8.47;100.00
37368;BME280;23240;43.210;27.910;2023-04-09T00:54:29;101671.13;;;8.45;100.00
37368;BME280;23240;43.210;27.910;2023-04-09T00:56:54;101677.59;;;8.41;100.00
37368;BME280;23240;43.210;27.910;2023-04-09T00:59:20;101669.84;;;8.20;100.00
37368;BME280;23240;43.210;27.910;2023-04-09T01:01:46;101671.91;;;7.99;100.00
37368;BME280;23240;43.210;27.910;2023-04-09T01:04:11;101663.13;;;7.82;100.00
37368;BME280;23240;43.210;27.910;2023-04-09T01:09:08;101667.19;;;7.89;100.00
37368;BME280;23240;43.210;27.910;2023-04-09T01:14:39;101667.94;;;7.91;100.00
37368;BME280;23240;43.210;27.910;2023-04-09T01:16:59;101678.72;;;7.89;100.00
37368;BME280;23240;43.210;27.910;2023-04-09T01:19:36;101671.81;;;8.01;100.00
37368;BME280;23240;43.210;27.910;2023-04-09T01:22:03;101671.22;;;7.96;100.00
37368;BME280;23240;43.210;27.910;2023-04-09T01:24:39;101678.72;;;7.89;100.00
37368;BME280;23240;43.210;27.910;2023-04-09T01:27:07;101677.41;;;7.81;100.00
37368;BME280;23240;43.210;27.910;2023-04-09T01:29:34;101673.97;;;7.79;100.00
37368;BME280;23240;43.210;27.910;2023-04-09T01:32:02;101663.81;;;7.85;100.00
37368;BME280;23240;43.210;27.910;2023-04-09T01:34:28;101668.31;;;7.85;100.00
37368;BME280;23240;43.210;27.910;2023-04-09T01:36:55;101665.53;;;7.86;100.00
37368;BME280;23240;43.210;27.910;2023-04-09T01:39:22;101661.41;;;7.81;100.00
37368;BME280;23240;43.210;27.910;2023-04-09T01:41:48;101663.31;;;7.79;100.00
37368;BME280;23240;43.210;27.910;2023-04-09T01:44:14;101660.72;;;7.77;100.00
37368;BME280;23240;43.210;27.910;2023-04-09T01:46:39;101666.50;;;7.69;100.00
37368;BME280;23240;43.210;27.910;2023-04-09T01:49:05;101670.53;;;7.77;100.00
37368;BME280;23240;43.210;27.910;2023-04-09T01:51:32;101654.28;;;7.81;100.00
37368;BME280;23240;43.210;27.910;2023-04-09T01:53:58;101656.06;;;7.81;100.00
37368;BME280;23240;43.210;27.910;2023-04-09T01:56:23;101655.03;;;7.67;100.00
37368;BME280;23240;43.210;27.910;2023-04-09T01:58:48;101658.63;;;7.51;100.00
37368;BME280;23240;43.210;27.910;2023-04-09T02:01:15;101665.31;;;7.42;100.00
37368;BME280;23240;43.210;27.910;2023-04-09T02:03:50;101659.03;;;7.43;100.00
37368;BME280;23240;43.210;27.910;2023-04-09T02:08:52;101663.84;;;7.36;100.00
37368;BME280;23240;43.210;27.910;2023-04-09T02:11:18;101666.00;;;7.12;100.00
37368;BME280;23240;43.210;27.910;2023-04-09T02:13:45;101665.53;;;7.04;100.00
37368;BME280;23240;43.210;27.910;2023-04-09T02:16:13;101662.38;;;6.96;100.00
37368;BME280;23240;43.210;27.910;2023-04-09T02:18:39;101663.56;;;6.90;100.00
37368;BME280;23240;43.210;27.910;2023-04-09T02:21:05;101666.34;;;6.89;100.00
37368;BME280;23240;43.210;27.910;2023-04-09T02:23:30;101661.00;;;6.89;100.00
37368;BME280;23240;43.210;27.910;2023-04-09T02:26:00;101663.53;;;6.92;100.00
37368;BME280;23240;43.210;27.910;2023-04-09T02:28:25;101662.09;;;6.85;100.00
37368;BME280;23240;43.210;27.910;2023-04-09T02:30:50;101661.16;;;6.86;100.00
37368;BME280;23240;43.210;27.910;2023-04-09T02:33:16;101671.19;;;6.81;100.00
37368;BME280;23240;43.210;27.910;2023-04-09T02:35:41;101657.72;;;6.84;100.00
37368;BME280;23240;43.210;27.910;2023-04-09T02:38:07;101662.94;;;6.85;100.00
37368;BME280;23240;43.210;27.910;2023-04-09T02:40:37;101662.19;;;6.83;100.00
37368;BME280;23240;43.210;27.910;2023-04-09T02:43:03;101656.84;;;6.83;100.00
37368;BME280;23240;43.210;27.910;2023-04-09T02:45:28;101658.72;;;6.81;100.00
37368;BME280;23240;43.210;27.910;2023-04-09T02:47:53;101659.44;;;6.85;100.00
37368;BME280;23240;43.210;27.910;2023-04-09T02:50:19;101657.94;;;6.79;100.00
37368;BME280;23240;43.210;27.910;2023-04-09T02:52:45;101650.44;;;6.70;100.00
37368;BME280;23240;43.210;27.910;2023-04-09T02:55:10;101653.09;;;6.70;100.00
37368;BME280;23240;43.210;27.910;2023-04-09T02:57:35;101650.53;;;6.68;100.00
37368;BME280;23240;43.210;27.910;2023-04-09T03:00:01;101645.03;;;6.54;100.00
37368;BME280;23240;43.210;27.910;2023-04-09T03:02:26;101652.38;;;6.49;100.00
37368;BME280;23240;43.210;27.910;2023-04-09T03:04:52;101658.00;;;6.43;100.00
37368;BME280;23240;43.210;27.910;2023-04-09T03:07:17;101651.91;;;6.41;100.00
37368;BME280;23240;43.210;27.910;2023-04-09T03:09:42;101662.00;;;6.34;100.00
37368;BME280;23240;43.210;27.910;2023-04-09T03:12:08;101659.16;;;6.37;100.00
37368;BME280;23240;43.210;27.910;2023-04-09T03:14:33;101662.22;;;6.30;100.00
37368;BME280;23240;43.210;27.910;2023-04-09T03:16:58;101664.53;;;6.18;100.00
37368;BME280;23240;43.210;27.910;2023-04-09T03:19:24;101666.53;;;6.13;100.00
37368;BME280;23240;43.210;27.910;2023-04-09T03:21:49;101663.38;;;6.24;100.00
37368;BME280;23240;43.210;27.910;2023-04-09T03:24:15;101661.84;;;6.18;100.00
37368;BME280;23240;43.210;27.910;2023-04-09T03:26:40;101670.78;;;6.17;100.00
37368;BME280;23240;43.210;27.910;2023-04-09T03:29:06;101670.31;;;6.09;100.00
37368;BME280;23240;43.210;27.910;2023-04-09T03:31:31;101672.97;;;6.09;100.00
37368;BME280;23240;43.210;27.910;2023-04-09T03:33:57;101673.75;;;6.11;100.00
37368;BME280;23240;43.210;27.910;2023-04-09T03:36:22;101675.97;;;6.02;100.00
37368;BME280;23240;43.210;27.910;2023-04-09T03:38:48;101675.22;;;6.00;100.00
37368;BME280;23240;43.210;27.910;2023-04-09T03:41:13;101679.19;;;5.89;100.00
37368;BME280;23240;43.210;27.910;2023-04-09T03:43:38;101680.06;;;5.90;100.00
37368;BME280;23240;43.210;27.910;2023-04-09T03:46:13;101687.25;;;5.88;100.00
37368;BME280;23240;43.210;27.910;2023-04-09T03:48:39;101686.69;;;5.81;100.00
37368;BME280;23240;43.210;27.910;2023-04-09T03:51:05;101690.31;;;5.79;100.00
37368;BME280;23240;43.210;27.910;2023-04-09T03:53:30;101693.78;;;5.81;100.00
37368;BME280;23240;43.210;27.910;2023-04-09T03:55:55;101691.41;;;5.75;100.00
37368;BME280;23240;43.210;27.910;2023-04-09T03:58:21;101694.69;;;5.80;100.00
37368;BME280;23240;43.210;27.910;2023-04-09T04:00:46;101694.88;;;5.77;100.00
37368;BME280;23240;43.210;27.910;2023-04-09T04:03:12;101691.41;;;5.75;100.00
37368;BME280;23240;43.210;27.910;2023-04-09T04:05:40;101695.66;;;5.79;100.00
37368;BME280;23240;43.210;27.910;2023-04-09T04:08:05;101697.31;;;5.81;100.00
37368;BME280;23240;43.210;27.910;2023-04-09T04:10:32;101691.63;;;5.89;100.00
37368;BME280;23240;43.210;27.910;2023-04-09T04:12:57;101694.94;;;5.94;100.00
37368;BME280;23240;43.210;27.910;2023-04-09T04:15:23;101696.50;;;6.00;100.00
37368;BME280;23240;43.210;27.910;2023-04-09T04:17:48;101695.47;;;6.02;100.00
37368;BME280;23240;43.210;27.910;2023-04-09T04:20:13;101693.44;;;6.07;100.00
37368;BME280;23240;43.210;27.910;2023-04-09T04:22:39;101698.47;;;6.13;100.00
37368;BME280;23240;43.210;27.910;2023-04-09T04:25:04;101700.41;;;6.29;100.00
37368;BME280;23240;43.210;27.910;2023-04-09T04:27:29;101701.19;;;6.31;100.00
37368;BME280;23240;43.210;27.910;2023-04-09T04:29:56;101693.47;;;6.43;100.00
37368;BME280;23240;43.210;27.910;2023-04-09T04:32:22;101690.19;;;6.56;100.00
37368;BME280;23240;43.210;27.910;2023-04-09T04:34:48;101688.78;;;6.66;100.00
37368;BME280;23240;43.210;27.910;2023-04-09T04:37:14;101681.19;;;6.76;100.00
37368;BME280;23240;43.210;27.910;2023-04-09T04:39:39;101679.66;;;6.89;100.00
37368;BME280;23240;43.210;27.910;2023-04-09T04:42:04;101680.75;;;7.02;100.00
37368;BME280;23240;43.210;27.910;2023-04-09T04:44:30;101670.28;;;7.15;100.00
37368;BME280;23240;43.210;27.910;2023-04-09T04:46:55;101663.47;;;7.27;100.00
37368;BME280;23240;43.210;27.910;2023-04-09T04:49:20;101672.69;;;7.37;100.00
37368;BME280;23240;43.210;27.910;2023-04-09T04:51:46;101666.63;;;7.51;100.00
37368;BME280;23240;43.210;27.910;2023-04-09T04:54:11;101661.56;;;7.62;100.00
37368;BME280;23240;43.210;27.910;2023-04-09T04:56:36;101666.75;;;7.81;100.00
37368;BME280;23240;43.210;27.910;2023-04-09T04:59:02;101671.91;;;7.99;100.00
37368;BME280;23240;43.210;27.910;2023-04-09T05:01:27;101677.25;;;8.15;100.00
37368;BME280;23240;43.210;27.910;2023-04-09T05:03:52;101668.28;;;8.32;100.00
37368;BME280;23240;43.210;27.910;2023-04-09T05:06:17;101667.13;;;8.38;100.00
37368;BME280;23240;43.210;27.910;2023-04-09T05:08:43;101675.19;;;8.52;100.00
37368;BME280;23240;43.210;27.910;2023-04-09T05:11:10;101674.59;;;8.77;100.00
37368;BME280;23240;43.210;27.910;2023-04-09T05:13:35;101672.41;;;9.14;100.00
37368;BME280;23240;43.210;27.910;2023-04-09T05:16:01;101672.88;;;9.20;100.00
37368;BME280;23240;43.210;27.910;2023-04-09T05:18:26;101679.75;;;9.24;100.00
37368;BME280;23240;43.210;27.910;2023-04-09T05:20:51;101676.28;;;9.08;100.00
37368;BME280;23240;43.210;27.910;2023-04-09T05:23:16;101678.22;;;9.20;100.00
37368;BME280;23240;43.210;27.910;2023-04-09T05:25:42;101669.06;;;9.39;100.00
37368;BME280;23240;43.210;27.910;2023-04-09T05:28:07;101676.72;;;9.45;100.00
37368;BME280;23240;43.210;27.910;2023-04-09T05:30:35;101675.75;;;9.60;100.00
37368;BME280;23240;43.210;27.910;2023-04-09T05:33:00;101677.56;;;9.74;100.00
37368;BME280;23240;43.210;27.910;2023-04-09T05:35:25;101681.84;;;9.76;100.00
37368;BME280;23240;43.210;27.910;2023-04-09T05:37:51;101682.03;;;10.02;100.00
37368;BME280;23240;43.210;27.910;2023-04-09T05:40:16;101684.44;;;10.34;100.00
37368;BME280;23240;43.210;27.910;2023-04-09T05:42:41;101679.53;;;10.67;100.00
37368;BME280;23240;43.210;27.910;2023-04-09T05:45:07;101685.59;;;10.96;100.00
37368;BME280;23240;43.210;27.910;2023-04-09T05:47:33;101695.19;;;11.13;100.00
37368;BME280;23240;43.210;27.910;2023-04-09T05:49:58;101692.50;;;11.39;100.00
37368;BME280;23240;43.210;27.910;2023-04-09T05:52:23;101691.09;;;11.58;100.00
37368;BME280;23240;43.210;27.910;2023-04-09T05:54:49;101698.38;;;11.69;100.00
37368;BME280;23240;43.210;27.910;2023-04-09T05:57:14;101688.81;;;11.78;100.00
37368;BME280;23240;43.210;27.910;2023-04-09T05:59:39;101691.84;;;12.23;100.00
37368;BME280;23240;43.210;27.910;2023-04-09T06:02:05;101688.44;;;12.45;100.00
37368;BME280;23240;43.210;27.910;2023-04-09T06:04:30;101691.81;;;12.59;100.00
37368;BME280;23240;43.210;27.910;2023-04-09T06:06:55;101685.94;;;12.90;100.00
37368;BME280;23240;43.210;27.910;2023-04-09T06:09:24;101687.78;;;13.00;100.00
37368;BME280;23240;43.210;27.910;2023-04-09T06:11:49;101685.13;;;13.58;100.00
37368;BME280;23240;43.210;27.910;2023-04-09T06:14:14;101690.03;;;13.64;100.00
37368;BME280;23240;43.210;27.910;2023-04-09T06:16:42;101694.31;;;13.67;100.00
37368;BME280;23240;43.210;27.910;2023-04-09T06:19:07;101699.00;;;14.30;98.08
37368;BME280;23240;43.210;27.910;2023-04-09T06:21:32;101708.56;;;14.78;90.50
37368;BME280;23240;43.210;27.910;2023-04-09T06:23:58;101708.50;;;14.68;89.76
37368;BME280;23240;43.210;27.910;2023-04-09T06:26:23;101716.03;;;14.85;86.60
37368;BME280;23240;43.210;27.910;2023-04-09T06:28:48;101713.66;;;15.13;83.95
37368;BME280;23240;43.210;27.910;2023-04-09T06:31:14;101714.47;;;15.04;86.00
37368;BME280;23240;43.210;27.910;2023-04-09T06:33:39;101706.56;;;15.12;84.83
37368;BME280;23240;43.210;27.910;2023-04-09T06:36:05;101717.03;;;15.26;83.93
37368;BME280;23240;43.210;27.910;2023-04-09T06:38:30;101719.16;;;15.43;84.31
37368;BME280;23240;43.210;27.910;2023-04-09T06:40:56;101722.09;;;15.40;83.95
37368;BME280;23240;43.210;27.910;2023-04-09T06:43:21;101718.63;;;15.29;86.46
37368;BME280;23240;43.210;27.910;2023-04-09T06:45:47;101720.13;;;15.22;85.72
37368;BME280;23240;43.210;27.910;2023-04-09T06:48:12;101720.25;;;15.62;82.49
37368;BME280;23240;43.210;27.910;2023-04-09T06:50:37;101718.84;;;15.47;86.00
37368;BME280;23240;43.210;27.910;2023-04-09T06:53:05;101718.06;;;15.56;85.68
37368;BME280;23240;43.210;27.910;2023-04-09T06:55:30;101720.19;;;15.52;87.47
37368;BME280;23240;43.210;27.910;2023-04-09T06:57:56;101718.06;;;15.56;88.54
37368;BME280;23240;43.210;27.910;2023-04-09T07:00:21;101715.53;;;15.85;86.00
37368;BME280;23240;43.210;27.910;2023-04-09T07:02:47;101713.97;;;15.61;86.64
37368;BME280;23240;43.210;27.910;2023-04-09T07:05:12;101710.66;;;16.09;84.53
37368;BME280;23240;43.210;27.910;2023-04-09T07:07:38;101713.53;;;15.77;85.71
37368;BME280;23240;43.210;27.910;2023-04-09T07:10:03;101705.94;;;16.02;84.45
37368;BME280;23240;43.210;27.910;2023-04-09T07:12:30;101708.56;;;16.32;80.57
37368;BME280;23240;43.210;27.910;2023-04-09T07:14:57;101714.25;;;16.29;78.95
37368;BME280;23240;43.210;27.910;2023-04-09T07:17:22;101704.34;;;16.39;79.05
37368;BME280;23240;43.210;27.910;2023-04-09T07:19:48;101705.72;;;16.34;76.29
37368;BME280;23240;43.210;27.910;2023-04-09T07:22:13;101711.47;;;16.00;78.72
37368;BME280;23240;43.210;27.910;2023-04-09T07:24:38;101708.72;;;15.90;77.37
37368;BME280;23240;43.210;27.910;2023-04-09T07:27:04;101711.16;;;16.43;78.93
37368;BME280;23240;43.210;27.910;2023-04-09T07:29:29;101708.00;;;16.38;73.41
37368;BME280;23240;43.210;27.910;2023-04-09T07:31:55;101703.84;;;16.75;72.12
37368;BME280;23240;43.210;27.910;2023-04-09T07:34:20;101705.91;;;16.61;73.87
37368;BME280;23240;43.210;27.910;2023-04-09T07:36:45;101709.19;;;16.55;72.74
37368;BME280;23240;43.210;27.910;2023-04-09T07:39:11;101699.81;;;16.59;71.59
37368;BME280;23240;43.210;27.910;2023-04-09T07:41:36;101699.81;;;16.59;74.38
37368;BME280;23240;43.210;27.910;2023-04-09T07:44:01;101696.09;;;16.60;72.95
37368;BME280;23240;43.210;27.910;2023-04-09T07:46:27;101705.22;;;16.69;69.98
37368;BME280;23240;43.210;27.910;2023-04-09T07:48:53;101701.34;;;16.62;69.27
37368;BME280;23240;43.210;27.910;2023-04-09T07:51:18;101704.63;;;16.56;70.65
37368;BME280;23240;43.210;27.910;2023-04-09T07:53:44;101709.78;;;16.09;76.36
37368;BME280;23240;43.210;27.910;2023-04-09T07:56:09;101712.53;;;16.18;80.56
37368;BME280;23240;43.210;27.910;2023-04-09T07:58:35;101700.22;;;15.95;81.40
37368;BME280;23240;43.210;27.910;2023-04-09T08:01:01;101712.94;;;15.74;84.48
37368;BME280;23240;43.210;27.910;2023-04-09T08:03:27;101714.09;;;15.81;85.09
37368;BME280;23240;43.210;27.910;2023-04-09T08:05:52;101717.47;;;15.73;88.54
37368;BME280;23240;43.210;27.910;2023-04-09T08:08:17;101705.75;;;15.63;85.53
37368;BME280;23240;43.210;27.910;2023-04-09T08:10:43;101720.84;;;15.45;89.25
37368;BME280;23240;43.210;27.910;2023-04-09T08:13:09;101711.63;;;15.47;90.48
37368;BME280;23240;43.210;27.910;2023-04-09T08:15:34;101713.78;;;15.32;94.51
37368;BME280;23240;43.210;27.910;2023-04-09T08:18:00;101717.56;;;14.99;98.82
37368;BME280;23240;43.210;27.910;2023-04-09T08:20:27;101716.50;;;15.11;99.43
37368;BME280;23240;43.210;27.910;2023-04-09T08:22:53;101718.50;;;15.09;98.33
37368;BME280;23240;43.210;27.910;2023-04-09T08:25:18;101718.09;;;14.61;100.00
37368;BME280;23240;43.210;27.910;2023-04-09T08:27:44;101722.50;;;14.39;100.00
37368;BME280;23240;43.210;27.910;2023-04-09T08:30:09;101727.94;;;14.28;100.00
37368;BME280;23240;43.210;27.910;2023-04-09T08:32:35;101728.16;;;14.25;100.00
37368;BME280;23240;43.210;27.910;2023-04-09T08:35:00;101724.31;;;13.73;100.00
37368;BME280;23240;43.210;27.910;2023-04-09T08:37:26;101717.94;;;13.74;100.00
37368;BME280;23240;43.210;27.910;2023-04-09T08:39:51;101722.34;;;13.75;100.00
37368;BME280;23240;43.210;27.910;2023-04-09T08:42:17;101727.97;;;13.83;100.00
37368;BME280;23240;43.210;27.910;2023-04-09T08:44:42;101726.38;;;13.70;100.00
37368;BME280;23240;43.210;27.910;2023-04-09T08:47:08;101725.50;;;13.47;100.00
37368;BME280;23240;43.210;27.910;2023-04-09T08:49:39;101727.81;;;13.62;100.00
37368;BME280;23240;43.210;27.910;2023-04-09T08:52:05;101722.56;;;13.15;100.00
37368;BME280;23240;43.210;27.910;2023-04-09T08:54:31;101720.75;;;13.15;100.00
37368;BME280;23240;43.210;27.910;2023-04-09T08:56:57;101716.66;;;13.33;100.00
37368;BME280;23240;43.210;27.910;2023-04-09T08:59:23;101717.41;;;13.35;100.00
37368;BME280;23240;43.210;27.910;2023-04-09T09:01:48;101715.94;;;13.31;100.00
37368;BME280;23240;43.210;27.910;2023-04-09T09:04:18;101719.69;;;13.29;100.00
37368;BME280;23240;43.210;27.910;2023-04-09T09:06:43;101716.81;;;13.19;100.00
37368;BME280;23240;43.210;27.910;2023-04-09T09:09:10;101710.78;;;13.04;100.00
37368;BME280;23240;43.210;27.910;2023-04-09T09:11:36;101716.94;;;13.18;100.00
37368;BME280;23240;43.210;27.910;2023-04-09T09:14:03;101723.66;;;13.01;100.00
37368;BME280;23240;43.210;27.910;2023-04-09T09:16:28;101720.50;;;12.83;100.00
37368;BME280;23240;43.210;27.910;2023-04-09T09:18:55;101723.31;;;12.81;100.00
37368;BME280;23240;43.210;27.910;2023-04-09T09:21:21;101718.63;;;12.72;100.00
37368;BME280;23240;43.210;27.910;2023-04-09T09:23:46;101718.38;;;12.75;100.00
37368;BME280;23240;43.210;27.910;2023-04-09T09:26:17;101716.84;;;12.84;100.00
37368;BME280;23240;43.210;27.910;2023-04-09T09:28:43;101713.81;;;12.89;100.00
37368;BME280;23240;43.210;27.910;2023-04-09T09:31:10;101716.47;;;12.77;100.00
37368;BME280;23240;43.210;27.910;2023-04-09T09:33:35;101712.81;;;12.90;100.00
37368;BME280;23240;43.210;27.910;2023-04-09T09:36:01;101714.81;;;12.99;100.00
37368;BME280;23240;43.210;27.910;2023-04-09T09:38:28;101721.31;;;12.96;100.00
37368;BME280;23240;43.210;27.910;2023-04-09T09:40:53;101716.69;;;12.74;100.00
37368;BME280;23240;43.210;27.910;2023-04-09T09:43:19;101708.13;;;12.80;100.00
37368;BME280;23240;43.210;27.910;2023-04-09T09:45:45;101708.66;;;12.85;100.00
37368;BME280;23240;43.210;27.910;2023-04-09T09:48:11;101704.91;;;12.64;100.00
37368;BME280;23240;43.210;27.910;2023-04-09T09:50:39;101702.94;;;12.66;100.00
37368;BME280;23240;43.210;27.910;2023-04-09T09:53:09;101702.09;;;12.66;100.00
37368;BME280;23240;43.210;27.910;2023-04-09T09:55:38;101692.81;;;12.70;100.00
37368;BME280;23240;43.210;27.910;2023-04-09T09:58:15;101688.78;;;12.64;100.00
37368;BME280;23240;43.210;27.910;2023-04-09T10:00:41;101698.59;;;12.76;100.00
37368;BME280;23240;43.210;27.910;2023-04-09T10:03:12;101693.22;;;12.76;100.00
37368;BME280;23240;43.210;27.910;2023-04-09T10:05:38;101693.94;;;12.67;100.00
37368;BME280;23240;43.210;27.910;2023-04-09T10:08:04;101691.25;;;12.67;100.00
37368;BME280;23240;43.210;27.910;2023-04-09T10:10:31;101682.94;;;12.70;100.00
37368;BME280;23240;43.210;27.910;2023-04-09T10:12:56;101686.66;;;12.56;100.00
37368;BME280;23240;43.210;27.910;2023-04-09T10:15:22;101689.50;;;12.66;100.00
37368;BME280;23240;43.210;27.910;2023-04-09T10:17:48;101692.94;;;12.68;100.00
37368;BME280;23240;43.210;27.910;2023-04-09T10:20:18;101694.63;;;12.58;100.00
37368;BME280;23240;43.210;27.910;2023-04-09T10:22:47;101689.94;;;12.49;100.00
37368;BME280;23240;43.210;27.910;2023-04-09T10:25:13;101692.09;;;12.44;100.00
37368;BME280;23240;43.210;27.910;2023-04-09T10:27:40;101691.75;;;12.48;100.00
37368;BME280;23240;43.210;27.910;2023-04-09T10:30:08;101680.09;;;12.37;100.00
37368;BME280;23240;43.210;27.910;2023-04-09T10:32:35;101690.09;;;12.34;100.00
37368;BME280;23240;43.210;27.910;2023-04-09T10:35:01;101686.91;;;12.29;100.00
37368;BME280;23240;43.210;27.910;2023-04-09T10:37:28;101690.03;;;12.23;100.00
37368;BME280;23240;43.210;27.910;2023-04-09T10:39:54;101684.13;;;12.18;100.00
37368;BME280;23240;43.210;27.910;2023-04-09T10:42:31;101683.34;;;12.29;100.00
37368;BME280;23240;43.210;27.910;2023-04-09T10:45:09;101678.41;;;12.23;100.00
37368;BME280;23240;43.210;27.910;2023-04-09T10:47:36;101675.88;;;11.85;100.00
37368;BME280;23240;43.210;27.910;2023-04-09T10:50:14;101675.50;;;11.89;100.00
37368;BME280;23240;43.210;27.910;2023-04-09T10:52:41;101674.13;;;11.83;100.00
37368;BME280;23240;43.210;27.910;2023-04-09T10:55:06;101661.47;;;11.86;100.00
37368;BME280;23240;43.210;27.910;2023-04-09T10:57:32;101663.69;;;11.92;100.00
37368;BME280;23240;43.210;27.910;2023-04-09T10:59:58;101666.69;;;12.00;100.00
37368;BME280;23240;43.210;27.910;2023-04-09T11:07:52;101651.44;;;12.00;100.00
37368;BME280;23240;43.210;27.910;2023-04-09T11:10:19;101647.44;;;12.06;100.00
37368;BME280;23240;43.210;27.910;2023-04-09T11:12:46;101646.28;;;11.97;100.00
37368;BME280;23240;43.210;27.910;2023-04-09T11:15:18;101644.50;;;11.85;100.00
37368;BME280;23240;43.210;27.910;2023-04-09T11:17:46;101642.28;;;12.03;100.00
37368;BME280;23240;43.210;27.910;2023-04-09T11:20:13;101643.66;;;12.08;100.00
37368;BME280;23240;43.210;27.910;2023-04-09T11:22:39;101638.03;;;12.24;100.00
37368;BME280;23240;43.210;27.910;2023-04-09T11:25:04;101631.69;;;12.25;100.00
37368;BME280;23240;43.210;27.910;2023-04-09T11:27:30;101633.63;;;12.23;100.00
37368;BME280;23240;43.210;27.910;2023-04-09T11:29:55;101631.13;;;12.33;100.00
37368;BME280;23240;43.210;27.910;2023-04-09T11:32:20;101631.63;;;12.38;100.00
37368;BME280;23240;43.210;27.910;2023-04-09T11:34:46;101633.44;;;12.38;100.00
37368;BME280;23240;43.210;27.910;2023-04-09T11:37:15;101627.50;;;12.21;100.00
37368;BME280;23240;43.210;27.910;2023-04-09T11:39:44;101622.28;;;12.31;100.00
37368;BME280;23240;43.210;27.910;2023-04-09T11:42:15;101622.59;;;12.15;100.00
37368;BME280;23240;43.210;27.910;2023-04-09T11:44:41;101619.44;;;12.21;100.00
37368;BME280;23240;43.210;27.910;2023-04-09T11:47:08;101610.75;;;12.18;100.00
37368;BME280;23240;43.210;27.910;2023-04-09T11:49:33;101609.13;;;12.04;100.00
37368;BME280;23240;43.210;27.910;2023-04-09T11:51:59;101607.63;;;12.00;100.00
37368;BME280;23240;43.210;27.910;2023-04-09T11:54:30;101611.00;;;12.15;100.00
37368;BME280;23240;43.210;27.910;2023-04-09T11:56:57;101611.38;;;12.21;100.00
37368;BME280;23240;43.210;27.910;2023-04-09T11:59:22;101608.38;;;11.89;100.00
37368;BME280;23240;43.210;27.910;2023-04-09T12:01:48;101599.06;;;11.69;100.00
37368;BME280;23240;43.210;27.910;2023-04-09T12:04:18;101602.00;;;11.66;100.00
37368;BME280;23240;43.210;27.910;2023-04-09T12:06:43;101597.03;;;11.73;100.00
37368;BME280;23240;43.210;27.910;2023-04-09T12:09:09;101593.59;;;11.83;100.00
37368;BME280;23240;43.210;27.910;2023-04-09T12:11:37;101591.56;;;11.87;100.00
37368;BME280;23240;43.210;27.910;2023-04-09T12:14:03;101593.50;;;12.09;100.00
37368;BME280;23240;43.210;27.910;2023-04-09T12:16:32;101592.28;;;12.13;100.00
37368;BME280;23240;43.210;27.910;2023-04-09T12:19:07;101589.25;;;11.94;100.00
37368;BME280;23240;43.210;27.910;2023-04-09T12:21:45;101593.22;;;12.01;100.00
37368;BME280;23240;43.210;27.910;2023-04-09T12:24:11;101595.50;;;11.94;100.00
37368;BME280;23240;43.210;27.910;2023-04-09T12:26:37;101594.56;;;11.82;100.00
37368;BME280;23240;43.210;27.910;2023-04-09T12:29:02;101593.50;;;11.72;100.00
37368;BME280;23240;43.210;27.910;2023-04-09T12:31:28;101590.50;;;11.64;100.00
37368;BME280;23240;43.210;27.910;2023-04-09T12:33:53;101588.19;;;11.47;100.00
37368;BME280;23240;43.210;27.910;2023-04-09T12:36:18;101595.91;;;11.51;100.00
37368;BME280;23240;43.210;27.910;2023-04-09T12:38:43;101596.31;;;11.71;100.00
37368;BME280;23240;43.210;27.910;2023-04-09T12:41:09;101600.25;;;11.78;100.00
37368;BME280;23240;43.210;27.910;2023-04-09T12:43:35;101593.25;;;11.88;100.00